Ranger, Texas
Current Conditions -  °F | °C
As of 6:15 AM on Saturday 25 Oct 2014 (Local Time) from KBKD Reporting Station
Clear Clear  
Wind Chill: 65°   Ceiling: Unl
Heat Index: 65°   Visibility: 7mi
Dew Point: 57°   Wind: 9mph
Humidity: 77%   Direction: 170°S
Pressure: 30.11"   Gusts: NA
Location:  32.47°N, 98.68°W
Report Text: KBKD 251115Z AUTO 17008KT 7SM CLR 18/14 A3011 RMK AO2 T01810140
Loading
Personal Weather Stations






























Interactive Weather Map
Tropical Storm Tracking
New forecast layout! Learn more

10-Day Weather Forecast

Advertisements
Track Severe Weather on mobile